Time;durP1;ratioP1;P1;durP2;ratioP2;P2;SDS_P1;SDS_P2;PMS_P1;PMS_P2;Temp;Humidity;BMP_temperature;BMP_pressure;BME280_temperature;BME280_humidity;BME280_pressure;Samples;Min_cycle;Max_cycle;Signal;HPM_P1;HPM_P2
2021/09/27 00:01:57;;;;;;;6.45;1.33;;;;;;;;;;5055108;28;20443;-75
2021/09/27 00:04:22;;;;;;;6.57;1.23;;;;;;;;;;5055131;28;20040;-76
2021/09/27 00:06:48;;;;;;;5.55;1.35;;;;;;;;;;5054872;28;20043;-76
2021/09/27 00:09:13;;;;;;;6.68;1.25;;;;;;;;;;5055124;28;20029;-76
2021/09/27 00:11:39;;;;;;;5.85;1.48;;;;;;;;;;5054886;28;20492;-76
2021/09/27 00:14:04;;;;;;;3.75;1.10;;;;;;;;;;5054989;28;20025;-76
2021/09/27 00:16:30;;;;;;;5.57;1.17;;;;;;;;;;5054819;28;20402;-76
2021/09/27 00:18:56;;;;;;;7.60;1.42;;;;;;;;;;5054886;28;20029;-76
2021/09/27 00:21:24;;;;;;;7.45;1.25;;;;;;;;;;5054785;28;20107;-76
2021/09/27 00:23:49;;;;;;;11.52;1.33;;;;;;;;;;5054836;28;20020;-76
2021/09/27 00:26:16;;;;;;;6.32;1.10;;;;;;;;;;5054705;28;20083;-75
2021/09/27 00:28:41;;;;;;;4.50;1.45;;;;;;;;;;5053363;28;20021;-78
2021/09/27 00:31:08;;;;;;;6.25;1.25;;;;;;;;;;5054920;28;20025;-76
2021/09/27 00:33:33;;;;;;;4.00;1.50;;;;;;;;;;5054542;28;20575;-77
2021/09/27 00:35:58;;;;;;;5.35;1.13;;;;;;;;;;5054740;28;20033;-76
2021/09/27 00:38:24;;;;;;;5.53;1.20;;;;;;;;;;5054203;28;20086;-76
2021/09/27 00:40:55;;;;;;;2.20;0.93;;;;;;;;;;5054006;28;20393;-76
2021/09/27 00:43:20;;;;;;;4.15;1.38;;;;;;;;;;5054438;28;20095;-76
2021/09/27 00:45:48;;;;;;;3.25;1.10;;;;;;;;;;5054034;28;20079;-76
2021/09/27 00:48:13;;;;;;;5.75;1.10;;;;;;;;;;5054382;28;20037;-75
2021/09/27 00:50:42;;;;;;;7.10;1.42;;;;;;;;;;5054156;28;20094;-78
2021/09/27 00:53:10;;;;;;;5.82;1.10;;;;;;;;;;5050598;28;20100;-76
2021/09/27 00:55:36;;;;;;;5.70;1.00;;;;;;;;;;5053681;28;20033;-76
2021/09/27 00:58:01;;;;;;;6.90;1.30;;;;;;;;;;5054108;28;20070;-76
2021/09/27 01:00:27;;;;;;;5.53;1.13;;;;;;;;;;5054153;28;20102;-76
2021/09/27 01:02:53;;;;;;;6.25;1.27;;;;;;;;;;5053923;28;20090;-76
2021/09/27 01:05:19;;;;;;;4.47;1.10;;;;;;;;;;5053953;28;20021;-76
2021/09/27 01:07:48;;;;;;;7.18;1.80;;;;;;;;;;5053900;28;20017;-76
2021/09/27 01:10:36;;;;;;;4.70;1.02;;;;;;;;;;5053951;28;20045;-76
2021/09/27 01:13:10;;;;;;;6.80;1.85;;;;;;;;;;5052433;28;20090;-76
2021/09/27 01:15:43;;;;;;;9.77;1.40;;;;;;;;;;5053970;28;20105;-76
2021/09/27 01:18:11;;;;;;;5.75;1.25;;;;;;;;;;5053770;28;20032;-76
2021/09/27 01:20:42;;;;;;;5.45;1.60;;;;;;;;;;5053991;28;20128;-76
2021/09/27 01:23:07;;;;;;;5.57;1.50;;;;;;;;;;5053691;28;20028;-75
2021/09/27 01:25:39;;;;;;;9.02;1.60;;;;;;;;;;5053621;28;20029;-76
2021/09/27 01:28:13;;;;;;;5.90;1.35;;;;;;;;;;5053598;28;20041;-76
2021/09/27 01:30:57;;;;;;;12.07;1.67;;;;;;;;;;5053565;28;20090;-76
2021/09/27 01:33:40;;;;;;;4.43;1.23;;;;;;;;;;5053264;28;20045;-76
2021/09/27 01:36:14;;;;;;;6.55;1.52;;;;;;;;;;5053337;28;20087;-76
2021/09/27 01:38:50;;;;;;;8.43;1.38;;;;;;;;;;5033391;28;20500;-76
2021/09/27 01:41:29;;;;;;;9.23;1.33;;;;;;;;;;5036610;28;20397;-76
2021/09/27 01:44:06;;;;;;;9.15;1.40;;;;;;;;;;5053349;28;20111;-76
2021/09/27 01:46:40;;;;;;;7.38;1.88;;;;;;;;;;5053567;28;20029;-76
2021/09/27 01:49:23;;;;;;;7.35;1.33;;;;;;;;;;5053356;28;20029;-76
2021/09/27 01:51:51;;;;;;;8.25;1.45;;;;;;;;;;5053462;28;20036;-76
2021/09/27 01:54:28;;;;;;;6.32;1.73;;;;;;;;;;5053516;28;20025;-76
2021/09/27 01:57:16;;;;;;;4.03;1.30;;;;;;;;;;5053402;28;20099;-76
2021/09/27 01:59:54;;;;;;;4.65;1.10;;;;;;;;;;5049740;28;20787;-76
2021/09/27 02:02:21;;;;;;;7.00;1.65;;;;;;;;;;5053162;28;20036;-76
2021/09/27 02:04:49;;;;;;;8.98;1.45;;;;;;;;;;5053212;28;20029;-76
2021/09/27 02:07:17;;;;;;;14.15;2.13;;;;;;;;;;5053217;28;20040;-76
2021/09/27 02:09:50;;;;;;;6.28;1.48;;;;;;;;;;5057149;28;20021;-76
2021/09/27 02:12:27;;;;;;;9.90;1.83;;;;;;;;;;5057490;28;20021;-76
2021/09/27 02:15:02;;;;;;;15.63;1.95;;;;;;;;;;5057044;28;20048;-76
2021/09/27 02:17:46;;;;;;;8.43;1.35;;;;;;;;;;5057163;28;20033;-76
2021/09/27 02:20:22;;;;;;;9.70;1.60;;;;;;;;;;5057178;28;20091;-76
2021/09/27 02:22:47;;;;;;;8.13;1.40;;;;;;;;;;5056962;28;20029;-77
2021/09/27 02:25:15;;;;;;;10.85;1.70;;;;;;;;;;5057058;28;20112;-76
2021/09/27 02:27:41;;;;;;;9.85;1.83;;;;;;;;;;5056883;28;20017;-76
2021/09/27 02:30:07;;;;;;;11.77;1.85;;;;;;;;;;5056953;28;20033;-77
2021/09/27 02:32:37;;;;;;;9.43;2.10;;;;;;;;;;5056455;28;20481;-76
2021/09/27 02:35:32;;;;;;;11.68;1.52;;;;;;;;;;5056493;28;20486;-76
2021/09/27 02:38:02;;;;;;;8.32;1.80;;;;;;;;;;5051571;28;20107;-76
2021/09/27 02:40:32;;;;;;;11.02;2.13;;;;;;;;;;5057039;28;20098;-76
2021/09/27 02:42:58;;;;;;;16.60;2.42;;;;;;;;;;5056653;28;20029;-76
2021/09/27 02:45:24;;;;;;;14.07;2.05;;;;;;;;;;5056732;28;20086;-76
2021/09/27 02:47:53;;;;;;;11.15;1.65;;;;;;;;;;5056414;28;20020;-77
2021/09/27 02:50:23;;;;;;;11.77;2.50;;;;;;;;;;5056312;28;20499;-77
2021/09/27 02:52:49;;;;;;;11.73;2.00;;;;;;;;;;5055066;28;20393;-77
2021/09/27 02:55:20;;;;;;;11.50;2.60;;;;;;;;;;5056503;28;20029;-76
2021/09/27 02:57:52;;;;;;;8.73;1.88;;;;;;;;;;5056320;28;20447;-76
2021/09/27 03:00:32;;;;;;;9.52;2.05;;;;;;;;;;5056431;28;20032;-76
2021/09/27 03:02:57;;;;;;;19.23;2.70;;;;;;;;;;5056285;28;20033;-77
2021/09/27 03:05:28;;;;;;;5.93;2.45;;;;;;;;;;5056245;28;20369;-77
2021/09/27 03:08:00;;;;;;;12.20;2.30;;;;;;;;;;5056092;28;20481;-77
2021/09/27 03:10:32;;;;;;;12.02;1.70;;;;;;;;;;5055918;28;20071;-76
2021/09/27 03:13:07;;;;;;;13.35;1.77;;;;;;;;;;5055878;28;20033;-77
2021/09/27 03:15:41;;;;;;;11.13;2.20;;;;;;;;;;5056131;28;20037;-77
2021/09/27 03:18:25;;;;;;;13.10;2.78;;;;;;;;;;5056057;28;20037;-76
2021/09/27 03:20:53;;;;;;;13.60;3.25;;;;;;;;;;5054537;28;20413;-76
2021/09/27 03:23:30;;;;;;;11.25;1.88;;;;;;;;;;5055954;28;20033;-76
2021/09/27 03:26:05;;;;;;;11.15;2.92;;;;;;;;;;5056059;28;20461;-77
2021/09/27 03:28:30;;;;;;;;;;;;;;;;;;5055015;28;20029;-78
2021/09/27 03:31:01;;;;;;;9.73;1.60;;;;;;;;;;5055838;28;19954;-76
2021/09/27 03:33:26;;;;;;;14.05;2.67;;;;;;;;;;5055605;28;20045;-76
2021/09/27 03:36:04;;;;;;;12.85;3.22;;;;;;;;;;5055283;28;20032;-76
2021/09/27 03:39:08;;;;;;;12.65;2.13;;;;;;;;;;5055848;28;20040;-76
2021/09/27 03:41:46;;;;;;;14.68;2.53;;;;;;;;;;5032715;28;20044;-77
2021/09/27 03:44:14;;;;;;;14.15;2.00;;;;;;;;;;5033384;28;20030;-76
2021/09/27 03:47:01;;;;;;;14.02;2.35;;;;;;;;;;5024984;28;20037;-77
2021/09/27 03:49:32;;;;;;;13.00;2.40;;;;;;;;;;5035566;28;20036;-76
2021/09/27 03:52:04;;;;;;;13.98;2.70;;;;;;;;;;5035387;28;20029;-76
2021/09/27 03:54:50;;;;;;;23.10;2.45;;;;;;;;;;5035600;28;20053;-77
2021/09/27 03:57:20;;;;;;;8.88;1.80;;;;;;;;;;5035306;28;20103;-76
2021/09/27 03:59:48;;;;;;;14.40;2.17;;;;;;;;;;5034998;28;20497;-76
2021/09/27 04:02:32;;;;;;;20.88;3.20;;;;;;;;;;5035534;28;20079;-76
2021/09/27 04:05:15;;;;;;;17.10;1.77;;;;;;;;;;5034849;28;20029;-76
2021/09/27 04:07:46;;;;;;;16.00;1.90;;;;;;;;;;5035330;28;20072;-77
2021/09/27 04:10:14;;;;;;;14.75;2.90;;;;;;;;;;5035143;28;20033;-76
2021/09/27 04:12:55;;;;;;;16.75;2.28;;;;;;;;;;5035016;28;20030;-77
2021/09/27 04:15:32;;;;;;;14.38;2.75;;;;;;;;;;5034849;28;20414;-77
2021/09/27 04:18:09;;;;;;;10.68;2.13;;;;;;;;;;5034674;28;20037;-76
2021/09/27 04:20:44;;;;;;;14.32;2.15;;;;;;;;;;5034895;28;20033;-77
2021/09/27 04:23:35;;;;;;;15.53;1.80;;;;;;;;;;5035118;28;20064;-76
2021/09/27 04:26:00;;;;;;;14.82;2.40;;;;;;;;;;5034783;28;20270;-76
2021/09/27 04:28:28;;;;;;;21.85;2.65;;;;;;;;;;5034839;28;20029;-76
2021/09/27 04:31:06;;;;;;;17.48;2.20;;;;;;;;;;5034379;28;20083;-76
2021/09/27 04:33:34;;;;;;;16.63;1.90;;;;;;;;;;5034586;28;20569;-76
2021/09/27 04:36:11;;;;;;;11.88;2.10;;;;;;;;;;5034687;28;20141;-76
2021/09/27 04:38:37;;;;;;;17.83;2.53;;;;;;;;;;5034586;28;20108;-75
2021/09/27 04:41:02;;;;;;;18.00;2.45;;;;;;;;;;5034535;28;20124;-76
2021/09/27 04:43:47;;;;;;;11.82;2.22;;;;;;;;;;5033381;28;20454;-75
2021/09/27 04:46:20;;;;;;;19.08;2.55;;;;;;;;;;5034396;28;20033;-75
2021/09/27 04:48:52;;;;;;;13.60;2.50;;;;;;;;;;5034290;28;20493;-76
2021/09/27 04:51:17;;;;;;;15.70;2.30;;;;;;;;;;5034342;28;20036;-76
2021/09/27 04:53:52;;;;;;;19.05;2.47;;;;;;;;;;5034160;28;20364;-76
2021/09/27 04:56:25;;;;;;;14.32;2.20;;;;;;;;;;5034041;28;20490;-75
2021/09/27 04:59:06;;;;;;;18.50;2.85;;;;;;;;;;5034303;28;20037;-76
2021/09/27 05:01:50;;;;;;;14.50;2.08;;;;;;;;;;5034314;28;20141;-76
2021/09/27 05:04:34;;;;;;;7.15;2.05;;;;;;;;;;5034144;28;20067;-76
2021/09/27 05:07:17;;;;;;;14.95;2.50;;;;;;;;;;5033964;28;20060;-76
2021/09/27 05:09:43;;;;;;;13.02;2.30;;;;;;;;;;5033851;28;20026;-76
2021/09/27 05:12:27;;;;;;;18.63;2.42;;;;;;;;;;5033945;28;20484;-75
2021/09/27 05:14:52;;;;;;;10.75;2.28;;;;;;;;;;5033788;28;20032;-78
2021/09/27 05:17:17;;;;;;;17.50;2.30;;;;;;;;;;5033897;28;20436;-78
2021/09/27 05:20:12;;;;;;;5.55;1.60;;;;;;;;;;5034073;28;20029;-77
2021/09/27 05:22:37;;;;;;;4.03;0.88;;;;;;;;;;5031487;28;20056;-77
2021/09/27 05:25:02;;;;;;;6.80;0.95;;;;;;;;;;5033944;28;20026;-77
2021/09/27 05:27:41;;;;;;;6.43;1.38;;;;;;;;;;5033766;28;20087;-78
2021/09/27 05:30:25;;;;;;;7.47;1.05;;;;;;;;;;5033394;28;20029;-78
2021/09/27 05:33:03;;;;;;;3.03;0.40;;;;;;;;;;5033197;28;20049;-78
2021/09/27 05:35:41;;;;;;;0.95;0.22;;;;;;;;;;5033565;28;20067;-78
2021/09/27 05:38:12;;;;;;;2.75;0.32;;;;;;;;;;5049780;28;20033;-78
2021/09/27 05:40:40;;;;;;;0.55;0.17;;;;;;;;;;5053531;28;20064;-78
2021/09/27 05:43:05;;;;;;;1.85;0.20;;;;;;;;;;5052986;28;20035;-78
2021/09/27 05:45:53;;;;;;;1.80;0.20;;;;;;;;;;5053388;28;20028;-78
2021/09/27 05:48:25;;;;;;;1.10;0.13;;;;;;;;;;5053384;28;20036;-78
2021/09/27 05:50:54;;;;;;;0.20;0.20;;;;;;;;;;5053637;28;20029;-78
2021/09/27 05:53:25;;;;;;;1.15;0.30;;;;;;;;;;5053316;28;20029;-78
2021/09/27 05:56:16;;;;;;;2.22;0.20;;;;;;;;;;5053223;28;20102;-77
2021/09/27 05:59:01;;;;;;;0.00;0.00;;;;;;;;;;5044353;28;20068;-78
2021/09/27 06:01:33;;;;;;;0.30;0.30;;;;;;;;;;5053271;28;20037;-77
2021/09/27 06:04:30;;;;;;;0.35;0.20;;;;;;;;;;5053226;28;20265;-76
2021/09/27 06:07:03;;;;;;;2.08;0.10;;;;;;;;;;5040685;28;20048;-77
2021/09/27 06:09:29;;;;;;;0.15;0.00;;;;;;;;;;5053076;28;20029;-77
2021/09/27 06:11:54;;;;;;;0.95;0.10;;;;;;;;;;5053182;28;20044;-77
2021/09/27 06:14:19;;;;;;;0.00;0.00;;;;;;;;;;5053126;28;20017;-77
2021/09/27 06:17:05;;;;;;;2.03;0.10;;;;;;;;;;5053222;28;20457;-77
2021/09/27 06:19:56;;;;;;;0.00;0.00;;;;;;;;;;5041584;28;20091;-77
2021/09/27 06:22:32;;;;;;;0.20;0.10;;;;;;;;;;5044354;28;20124;-78
2021/09/27 06:24:57;;;;;;;;;;;;;;;;;;5053334;28;20513;-77
2021/09/27 06:27:35;;;;;;;0.17;0.10;;;;;;;;;;5052747;28;19909;-77
2021/09/27 06:30:08;;;;;;;0.57;0.10;;;;;;;;;;5052957;28;20468;-77
2021/09/27 06:32:52;;;;;;;0.10;0.10;;;;;;;;;;5052800;28;20051;-76
2021/09/27 06:35:19;;;;;;;2.88;0.17;;;;;;;;;;5052872;28;20102;-76
2021/09/27 06:37:45;;;;;;;0.30;0.10;;;;;;;;;;5052833;28;20033;-77
2021/09/27 06:40:11;;;;;;;1.17;0.10;;;;;;;;;;5052862;28;20079;-77
2021/09/27 06:42:36;;;;;;;0.30;0.20;;;;;;;;;;5052828;28;20082;-76
2021/09/27 06:45:02;;;;;;;0.10;0.10;;;;;;;;;;5052929;28;20028;-76
2021/09/27 06:47:27;;;;;;;4.15;0.20;;;;;;;;;;5052774;28;20037;-76
2021/09/27 06:49:53;;;;;;;0.40;0.20;;;;;;;;;;5052360;28;20028;-79
2021/09/27 06:52:18;;;;;;;0.73;0.20;;;;;;;;;;5052879;28;20036;-76
2021/09/27 06:54:43;;;;;;;0.35;0.30;;;;;;;;;;5054733;28;20178;-77
2021/09/27 06:57:09;;;;;;;0.43;0.38;;;;;;;;;;5056528;28;20471;-77
2021/09/27 06:59:34;;;;;;;0.22;0.20;;;;;;;;;;5056445;28;20473;-77
2021/09/27 07:01:59;;;;;;;1.30;0.20;;;;;;;;;;5055914;28;20033;-78
2021/09/27 07:04:25;;;;;;;0.13;0.10;;;;;;;;;;5056299;28;20106;-77
2021/09/27 07:06:50;;;;;;;0.20;0.20;;;;;;;;;;5056354;28;20029;-77
2021/09/27 07:09:15;;;;;;;2.50;0.20;;;;;;;;;;5056159;28;20116;-77
2021/09/27 07:11:41;;;;;;;1.88;0.20;;;;;;;;;;5056189;28;20381;-77
2021/09/27 07:14:07;;;;;;;0.60;0.22;;;;;;;;;;5056080;28;20074;-76
2021/09/27 07:16:32;;;;;;;0.32;0.20;;;;;;;;;;5056020;28;20098;-77
2021/09/27 07:18:57;;;;;;;1.30;0.30;;;;;;;;;;5055775;28;20032;-78
2021/09/27 07:21:23;;;;;;;0.32;0.22;;;;;;;;;;5056069;28;20036;-78
2021/09/27 07:23:48;;;;;;;0.63;0.20;;;;;;;;;;5055892;28;20033;-77
2021/09/27 07:26:15;;;;;;;0.70;0.50;;;;;;;;;;5056097;28;20031;-76
2021/09/27 07:28:40;;;;;;;1.10;0.60;;;;;;;;;;5055851;28;20033;-76
2021/09/27 07:31:06;;;;;;;1.98;0.22;;;;;;;;;;5055743;28;20044;-77
2021/09/27 07:33:32;;;;;;;0.63;0.63;;;;;;;;;;5055391;28;20438;-77
2021/09/27 07:35:58;;;;;;;1.95;0.70;;;;;;;;;;5055609;28;20052;-78
2021/09/27 07:38:24;;;;;;;1.17;0.50;;;;;;;;;;5055563;28;20040;-78
2021/09/27 07:40:49;;;;;;;0.28;0.20;;;;;;;;;;5055549;28;20029;-77
2021/09/27 07:43:14;;;;;;;0.40;0.40;;;;;;;;;;5050952;28;20469;-79
2021/09/27 07:45:40;;;;;;;0.63;0.60;;;;;;;;;;5052104;28;20060;-77
2021/09/27 07:48:07;;;;;;;0.60;0.43;;;;;;;;;;5052576;28;20036;-78
2021/09/27 07:50:33;;;;;;;0.38;0.30;;;;;;;;;;5052908;28;20037;-78
2021/09/27 07:52:59;;;;;;;0.73;0.60;;;;;;;;;;5051901;28;20075;-78
2021/09/27 07:55:24;;;;;;;0.73;0.60;;;;;;;;;;5052002;28;20032;-78
2021/09/27 07:57:49;;;;;;;0.65;0.52;;;;;;;;;;5047707;28;20861;-78
2021/09/27 08:00:16;;;;;;;0.45;0.45;;;;;;;;;;5051047;28;20469;-78
2021/09/27 08:02:42;;;;;;;0.95;0.70;;;;;;;;;;5052114;28;20017;-78
2021/09/27 08:05:12;;;;;;;1.13;0.60;;;;;;;;;;5052582;28;20035;-77
2021/09/27 08:07:37;;;;;;;0.50;0.50;;;;;;;;;;5052315;28;20484;-79
2021/09/27 08:10:03;;;;;;;3.38;0.57;;;;;;;;;;5052225;28;20021;-78
2021/09/27 08:12:29;;;;;;;0.50;0.50;;;;;;;;;;5051959;28;20500;-79
2021/09/27 08:14:56;;;;;;;1.52;0.60;;;;;;;;;;5051849;28;20056;-79
2021/09/27 08:17:21;;;;;;;2.30;0.60;;;;;;;;;;5052365;28;20062;-79
2021/09/27 08:19:47;;;;;;;1.30;0.50;;;;;;;;;;5052455;28;20445;-83
2021/09/27 08:22:13;;;;;;;2.15;0.90;;;;;;;;;;5051221;28;20041;-78
2021/09/27 08:24:38;;;;;;;0.57;0.57;;;;;;;;;;5051253;28;20122;-78
2021/09/27 08:27:03;;;;;;;1.83;0.80;;;;;;;;;;5052011;28;20359;-79
2021/09/27 08:29:29;;;;;;;0.95;0.60;;;;;;;;;;5051573;28;20068;-78
2021/09/27 08:31:54;;;;;;;3.60;0.65;;;;;;;;;;5052063;28;20029;-79
2021/09/27 08:34:19;;;;;;;0.50;0.50;;;;;;;;;;5052487;28;20067;-79
2021/09/27 08:36:46;;;;;;;0.43;0.43;;;;;;;;;;5051811;28;20036;-78
2021/09/27 08:39:12;;;;;;;3.15;0.63;;;;;;;;;;5047555;28;20352;-80
2021/09/27 08:41:46;;;;;;;2.28;1.30;;;;;;;;;;5050556;28;20125;-79
2021/09/27 08:44:18;;;;;;;0.60;0.60;;;;;;;;;;5049476;28;20412;-80
2021/09/27 08:47:03;;;;;;;1.35;0.63;;;;;;;;;;5050728;28;20078;-79
2021/09/27 08:49:35;;;;;;;1.20;0.80;;;;;;;;;;5050488;28;20087;-80
2021/09/27 08:52:00;;;;;;;1.10;0.82;;;;;;;;;;5051347;28;20028;-80
2021/09/27 08:54:29;;;;;;;3.33;0.85;;;;;;;;;;5048958;28;20041;-79
2021/09/27 08:57:13;;;;;;;0.93;0.50;;;;;;;;;;5050761;28;20043;-79
2021/09/27 08:59:38;;;;;;;1.63;0.75;;;;;;;;;;5050271;28;20041;-79
2021/09/27 09:02:10;;;;;;;1.63;0.73;;;;;;;;;;5050880;28;20115;-79
2021/09/27 09:04:42;;;;;;;1.10;0.77;;;;;;;;;;5044637;28;20795;-79
2021/09/27 09:07:10;;;;;;;1.05;0.50;;;;;;;;;;5048706;28;20029;-80
2021/09/27 09:09:36;;;;;;;2.90;0.70;;;;;;;;;;5049382;28;20029;-79
2021/09/27 09:12:05;;;;;;;0.88;0.57;;;;;;;;;;5049293;28;20108;-79
2021/09/27 09:14:30;;;;;;;2.15;0.60;;;;;;;;;;5048552;28;20071;-80
2021/09/27 09:16:56;;;;;;;1.63;0.73;;;;;;;;;;5048008;28;20040;-80
2021/09/27 09:19:23;;;;;;;1.48;0.57;;;;;;;;;;5049127;28;20090;-80
2021/09/27 09:21:53;;;;;;;1.23;0.70;;;;;;;;;;5042971;28;20494;-80
2021/09/27 09:24:23;;;;;;;4.97;0.95;;;;;;;;;;5047802;28;20071;-81
2021/09/27 09:26:50;;;;;;;1.77;0.70;;;;;;;;;;5047714;28;20370;-80
2021/09/27 09:29:17;;;;;;;0.40;0.40;;;;;;;;;;5048166;28;20488;-79
2021/09/27 09:31:45;;;;;;;1.40;0.75;;;;;;;;;;5048020;28;20048;-79
2021/09/27 09:34:16;;;;;;;2.60;0.55;;;;;;;;;;5047015;28;20041;-78
2021/09/27 09:36:42;;;;;;;0.50;0.32;;;;;;;;;;5047030;28;20907;-78
2021/09/27 09:39:12;;;;;;;2.35;0.60;;;;;;;;;;5047953;28;20362;-79
2021/09/27 09:42:04;;;;;;;3.03;0.50;;;;;;;;;;5047641;28;20039;-79
2021/09/27 09:44:32;;;;;;;1.45;0.70;;;;;;;;;;5046532;28;20541;-78
2021/09/27 09:47:02;;;;;;;1.75;0.50;;;;;;;;;;5046952;28;20037;-82
2021/09/27 09:49:30;;;;;;;1.45;0.40;;;;;;;;;;5048105;28;20111;-79
2021/09/27 09:52:02;;;;;;;2.63;0.40;;;;;;;;;;5047447;28;20113;-78
2021/09/27 09:54:29;;;;;;;1.13;0.47;;;;;;;;;;5045811;28;20525;-79
2021/09/27 09:57:03;;;;;;;0.45;0.38;;;;;;;;;;5046997;28;20102;-78
2021/09/27 09:59:33;;;;;;;1.50;0.50;;;;;;;;;;5047673;28;20033;-80
2021/09/27 10:01:59;;;;;;;2.35;0.90;;;;;;;;;;5047060;28;20155;-79
2021/09/27 10:04:24;;;;;;;0.88;0.40;;;;;;;;;;5049448;28;20104;-78
2021/09/27 10:06:55;;;;;;;1.48;0.55;;;;;;;;;;5048911;28;20483;-80
2021/09/27 10:09:31;;;;;;;2.97;0.60;;;;;;;;;;5049389;28;20036;-78
2021/09/27 10:12:02;;;;;;;3.83;0.65;;;;;;;;;;5049667;28;20107;-77
2021/09/27 10:14:31;;;;;;;2.08;0.50;;;;;;;;;;5049514;28;20029;-81
2021/09/27 10:17:14;;;;;;;1.02;0.30;;;;;;;;;;5049062;28;20049;-77
2021/09/27 10:19:55;;;;;;;1.30;0.38;;;;;;;;;;5048275;28;20455;-77
2021/09/27 10:22:24;;;;;;;3.08;0.50;;;;;;;;;;5049232;28;20056;-79
2021/09/27 10:24:50;;;;;;;2.25;0.40;;;;;;;;;;5049454;28;20033;-78
2021/09/27 10:27:19;;;;;;;2.10;0.57;;;;;;;;;;5048058;28;20044;-81
2021/09/27 10:29:45;;;;;;;1.58;0.50;;;;;;;;;;5051728;28;20469;-77
2021/09/27 10:32:18;;;;;;;3.75;0.50;;;;;;;;;;5053060;28;20052;-77
2021/09/27 10:34:43;;;;;;;4.97;0.60;;;;;;;;;;5053058;28;20045;-76
2021/09/27 10:37:15;;;;;;;2.22;0.57;;;;;;;;;;5052218;28;20060;-80
2021/09/27 10:39:42;;;;;;;5.15;0.57;;;;;;;;;;5052380;28;20513;-77
2021/09/27 10:42:12;;;;;;;1.75;0.45;;;;;;;;;;5046664;28;20036;-77
2021/09/27 10:44:40;;;;;;;3.20;0.50;;;;;;;;;;5052111;28;20044;-77
2021/09/27 10:47:18;;;;;;;5.68;1.00;;;;;;;;;;5051260;28;20187;-77
2021/09/27 10:49:49;;;;;;;2.72;0.82;;;;;;;;;;5049114;28;20488;-76
2021/09/27 10:52:17;;;;;;;6.82;1.20;;;;;;;;;;5050720;28;20400;-76
2021/09/27 10:54:44;;;;;;;3.20;0.93;;;;;;;;;;5051194;28;20497;-77
2021/09/27 10:57:17;;;;;;;4.32;0.93;;;;;;;;;;5051035;28;20029;-77
2021/09/27 10:59:58;;;;;;;5.75;0.93;;;;;;;;;;5050440;28;20021;-78
2021/09/27 11:02:23;;;;;;;7.53;1.85;;;;;;;;;;5051601;28;20037;-80
2021/09/27 11:04:53;;;;;;;4.78;0.90;;;;;;;;;;5052954;28;20029;-77
2021/09/27 11:07:26;;;;;;;7.10;1.35;;;;;;;;;;5052138;28;20045;-76
2021/09/27 11:09:53;;;;;;;12.27;1.10;;;;;;;;;;5052047;28;20037;-78
2021/09/27 11:12:29;;;;;;;2.60;0.80;;;;;;;;;;5052407;28;20158;-77
2021/09/27 11:14:54;;;;;;;6.47;0.73;;;;;;;;;;5052043;28;20029;-76
2021/09/27 11:17:23;;;;;;;2.75;1.05;;;;;;;;;;5052407;28;20051;-76
2021/09/27 11:20:06;;;;;;;3.03;0.82;;;;;;;;;;5051255;28;20392;-77
2021/09/27 11:22:32;;;;;;;9.32;1.77;;;;;;;;;;5050986;28;20063;-76
2021/09/27 11:25:20;;;;;;;4.70;1.15;;;;;;;;;;5052339;28;20389;-76
2021/09/27 11:28:02;;;;;;;9.50;1.00;;;;;;;;;;5050890;28;20055;-77
2021/09/27 11:31:05;;;;;;;5.07;1.40;;;;;;;;;;5051849;28;20044;-76
2021/09/27 11:33:30;;;;;;;6.00;1.00;;;;;;;;;;5051964;28;20053;-76
2021/09/27 11:35:59;;;;;;;7.70;0.93;;;;;;;;;;5051896;28;20094;-77
2021/09/27 11:38:28;;;;;;;3.90;0.85;;;;;;;;;;5050892;28;20354;-76
2021/09/27 11:40:55;;;;;;;4.07;0.77;;;;;;;;;;5051988;28;20404;-78
2021/09/27 11:43:46;;;;;;;6.75;0.90;;;;;;;;;;5053744;28;20115;-77
2021/09/27 11:46:17;;;;;;;6.05;0.73;;;;;;;;;;5052865;28;20059;-82
2021/09/27 11:48:51;;;;;;;6.55;0.77;;;;;;;;;;5051277;28;20043;-79
2021/09/27 11:51:19;;;;;;;3.20;0.50;;;;;;;;;;5052325;28;20029;-77
2021/09/27 11:53:47;;;;;;;3.33;0.68;;;;;;;;;;5052158;28;20037;-76
2021/09/27 11:56:31;;;;;;;1.13;0.50;;;;;;;;;;5050262;28;20388;-81
2021/09/27 11:58:56;;;;;;;3.47;0.60;;;;;;;;;;5052329;28;20028;-78
2021/09/27 12:01:41;;;;;;;3.55;0.57;;;;;;;;;;5053169;28;20044;-76
2021/09/27 12:04:15;;;;;;;6.28;1.65;;;;;;;;;;5052044;28;20028;-77
2021/09/27 12:06:43;;;;;;;1.08;0.45;;;;;;;;;;5052435;28;20037;-77
2021/09/27 12:09:13;;;;;;;2.97;0.40;;;;;;;;;;5052033;28;20112;-76
2021/09/27 12:11:47;;;;;;;5.68;0.60;;;;;;;;;;5053160;28;20033;-77
2021/09/27 12:14:35;;;;;;;3.03;0.70;;;;;;;;;;5052465;28;20052;-78
2021/09/27 12:17:03;;;;;;;3.35;0.40;;;;;;;;;;5052300;28;20041;-77
2021/09/27 12:19:30;;;;;;;4.47;0.47;;;;;;;;;;5052165;28;20025;-77
2021/09/27 12:21:56;;;;;;;3.35;0.52;;;;;;;;;;5052857;28;20037;-77
2021/09/27 12:24:26;;;;;;;2.65;0.50;;;;;;;;;;5052377;28;20049;-76
2021/09/27 12:27:11;;;;;;;3.55;0.55;;;;;;;;;;5052443;28;20116;-78
2021/09/27 12:29:49;;;;;;;1.17;0.35;;;;;;;;;;5051845;28;20025;-76
2021/09/27 12:32:14;;;;;;;1.77;0.77;;;;;;;;;;5052699;28;20029;-76
2021/09/27 12:34:43;;;;;;;5.65;0.68;;;;;;;;;;5053015;28;20083;-76
2021/09/27 12:37:10;;;;;;;3.97;0.73;;;;;;;;;;5051929;28;20040;-76
2021/09/27 12:39:36;;;;;;;5.97;1.15;;;;;;;;;;5052157;28;20025;-76
2021/09/27 12:42:02;;;;;;;4.38;0.70;;;;;;;;;;5052634;28;20106;-76
2021/09/27 12:44:29;;;;;;;2.53;0.52;;;;;;;;;;5051794;28;20021;-76
2021/09/27 12:46:56;;;;;;;2.83;0.40;;;;;;;;;;5051988;28;20473;-77
2021/09/27 12:49:53;;;;;;;4.07;0.65;;;;;;;;;;5051516;28;20032;-77
2021/09/27 12:52:35;;;;;;;3.13;0.60;;;;;;;;;;5048851;28;20049;-77
2021/09/27 12:55:01;;;;;;;4.53;0.57;;;;;;;;;;5051627;28;20037;-76
2021/09/27 12:57:29;;;;;;;7.65;0.80;;;;;;;;;;5052228;28;20039;-76
2021/09/27 12:59:56;;;;;;;2.78;0.40;;;;;;;;;;5048302;28;20120;-76
2021/09/27 13:02:24;;;;;;;2.50;0.38;;;;;;;;;;5051650;28;20092;-76
2021/09/27 13:04:50;;;;;;;4.55;0.73;;;;;;;;;;5051831;28;20464;-78
2021/09/27 13:07:17;;;;;;;4.88;1.00;;;;;;;;;;5051161;28;20488;-76
2021/09/27 13:10:09;;;;;;;2.40;0.70;;;;;;;;;;5050415;28;20028;-77
2021/09/27 13:12:39;;;;;;;4.28;0.68;;;;;;;;;;5051208;28;20401;-77
2021/09/27 13:15:08;;;;;;;5.13;0.80;;;;;;;;;;5051468;28;20496;-78
2021/09/27 13:17:34;;;;;;;7.45;0.90;;;;;;;;;;5051522;28;20102;-77
2021/09/27 13:20:19;;;;;;;8.73;0.82;;;;;;;;;;5050923;28;20044;-78
2021/09/27 13:22:45;;;;;;;5.97;0.70;;;;;;;;;;5051792;28;20033;-78
2021/09/27 13:25:10;;;;;;;5.55;1.25;;;;;;;;;;5050759;28;20450;-77
2021/09/27 13:27:38;;;;;;;4.20;0.95;;;;;;;;;;5047812;28;20093;-77
2021/09/27 13:30:18;;;;;;;4.13;0.80;;;;;;;;;;5051318;28;20029;-77
2021/09/27 13:32:55;;;;;;;7.82;1.20;;;;;;;;;;5050464;28;20499;-76
2021/09/27 13:35:23;;;;;;;8.15;0.82;;;;;;;;;;5050611;28;20037;-78
2021/09/27 13:37:52;;;;;;;3.38;0.80;;;;;;;;;;5050568;28;20025;-76
2021/09/27 13:40:24;;;;;;;7.53;0.77;;;;;;;;;;5050097;28;20047;-76
2021/09/27 13:42:51;;;;;;;3.75;0.70;;;;;;;;;;5049924;28;20486;-76
2021/09/27 13:45:43;;;;;;;4.25;1.17;;;;;;;;;;5050209;28;20069;-78
2021/09/27 13:48:08;;;;;;;2.22;0.50;;;;;;;;;;5047222;28;20045;-76
2021/09/27 13:50:34;;;;;;;4.25;0.68;;;;;;;;;;5049782;28;20087;-77
2021/09/27 13:53:04;;;;;;;4.90;1.25;;;;;;;;;;5050175;28;20029;-76
2021/09/27 13:55:30;;;;;;;5.22;0.90;;;;;;;;;;5050490;28;20047;-76
2021/09/27 13:57:55;;;;;;;5.97;0.80;;;;;;;;;;5050189;28;20033;-82
2021/09/27 14:00:21;;;;;;;4.55;0.65;;;;;;;;;;5049734;28;20040;-76
2021/09/27 14:02:47;;;;;;;7.30;1.05;;;;;;;;;;5049700;28;20363;-76
2021/09/27 14:05:12;;;;;;;5.22;0.95;;;;;;;;;;5056563;28;20033;-77
2021/09/27 14:07:37;;;;;;;4.30;0.52;;;;;;;;;;5057135;28;20021;-76
2021/09/27 14:10:04;;;;;;;6.22;1.00;;;;;;;;;;5057239;28;20033;-76
2021/09/27 14:12:29;;;;;;;5.53;0.90;;;;;;;;;;5055584;28;20035;-77
2021/09/27 14:14:55;;;;;;;1.83;0.40;;;;;;;;;;5056940;28;20100;-77
2021/09/27 14:17:21;;;;;;;3.15;0.52;;;;;;;;;;5056267;28;20439;-78
2021/09/27 14:19:50;;;;;;;6.82;0.70;;;;;;;;;;5057421;28;20037;-76
2021/09/27 14:22:16;;;;;;;2.35;0.45;;;;;;;;;;5056601;28;20021;-76
2021/09/27 14:24:41;;;;;;;6.72;1.00;;;;;;;;;;5056724;28;20036;-76
2021/09/27 14:27:06;;;;;;;2.67;0.80;;;;;;;;;;5056827;28;20067;-76
2021/09/27 14:29:32;;;;;;;1.90;0.22;;;;;;;;;;5056306;28;20425;-76
2021/09/27 14:31:58;;;;;;;2.88;0.40;;;;;;;;;;5056108;28;20037;-80
2021/09/27 14:34:23;;;;;;;1.25;0.38;;;;;;;;;;5057870;28;20147;-76
2021/09/27 14:36:48;;;;;;;3.65;0.52;;;;;;;;;;5058139;28;20032;-76
2021/09/27 14:39:14;;;;;;;2.38;0.35;;;;;;;;;;5058117;28;20033;-76
2021/09/27 14:41:39;;;;;;;4.10;0.55;;;;;;;;;;5058079;28;20033;-78
2021/09/27 14:44:04;;;;;;;2.25;0.45;;;;;;;;;;5058337;28;20025;-76
2021/09/27 14:46:30;;;;;;;3.60;0.40;;;;;;;;;;5058361;28;20060;-76
2021/09/27 14:48:55;;;;;;;1.58;0.45;;;;;;;;;;5058057;28;20025;-77
2021/09/27 14:51:20;;;;;;;1.40;0.50;;;;;;;;;;5057051;28;20067;-76
2021/09/27 14:53:46;;;;;;;4.15;0.52;;;;;;;;;;5058032;28;20037;-76
2021/09/27 14:56:13;;;;;;;1.55;0.40;;;;;;;;;;5058111;28;20098;-77
2021/09/27 14:58:41;;;;;;;1.88;0.60;;;;;;;;;;5058062;28;20024;-76
2021/09/27 15:01:07;;;;;;;3.08;1.60;;;;;;;;;;5058326;28;20072;-78
2021/09/27 15:03:32;;;;;;;6.22;0.60;;;;;;;;;;5057655;28;20060;-75